Time;durP1;ratioP1;P1;durP2;ratioP2;P2;SDS_P1;SDS_P2;PMS_P1;PMS_P2;Temp;Humidity;BMP_temperature;BMP_pressure;BME280_temperature;BME280_humidity;BME280_pressure;Samples;Min_cycle;Max_cycle;Signal;HPM_P1;HPM_P2
2022/07/24 00:00:16;;;;;;;15.70;14.50;;;20.70;99.90;;;;;;4932569;28;20237;-91
2022/07/24 00:02:42;;;;;;;18.37;16.77;;;20.70;99.90;;;;;;4930521;28;20193;-92
2022/07/24 00:05:08;;;;;;;16.67;15.27;;;20.60;99.90;;;;;;4931068;28;20224;-91
2022/07/24 00:07:36;;;;;;;15.77;14.57;;;20.60;99.90;;;;;;4934716;28;20537;-90
2022/07/24 00:10:06;;;;;;;15.87;14.67;;;20.60;99.90;;;;;;4945463;28;21587;-91
2022/07/24 00:12:32;;;;;;;16.33;15.03;;;20.50;99.90;;;;;;4932528;28;21460;-91
2022/07/24 00:14:57;;;;;;;17.17;15.87;;;20.50;99.90;;;;;;4927753;28;21083;-91
2022/07/24 00:17:23;;;;;;;16.33;15.13;;;20.50;99.90;;;;;;4931938;28;20235;-91
2022/07/24 00:19:48;;;;;;;15.93;14.73;;;20.30;99.90;;;;;;4931160;28;20219;-92
2022/07/24 00:22:15;;;;;;;17.90;16.43;;;20.30;99.90;;;;;;4937203;28;20195;-91
2022/07/24 00:24:40;;;;;;;17.60;16.10;;;20.30;99.90;;;;;;4929865;28;20184;-91
2022/07/24 00:27:06;;;;;;;16.40;15.00;;;20.30;99.90;;;;;;4934583;28;20582;-91
2022/07/24 00:29:31;;;;;;;15.70;14.50;;;20.20;99.90;;;;;;4963826;28;20665;-91
2022/07/24 00:31:57;;;;;;;16.47;15.03;;;20.10;99.90;;;;;;4931162;28;20661;-91
2022/07/24 00:34:22;;;;;;;16.10;14.60;;;20.10;99.90;;;;;;4925754;28;20203;-92
2022/07/24 00:36:48;;;;;;;16.20;14.67;;;20.10;99.90;;;;;;4932712;28;20182;-91
2022/07/24 00:39:14;;;;;;;18.57;17.07;;;20.10;99.90;;;;;;4930351;28;20321;-91
2022/07/24 00:41:40;;;;;;;16.87;15.47;;;20.20;99.90;;;;;;4958441;28;20187;-92
2022/07/24 00:44:15;;;;;;;16.40;15.10;;;20.30;99.90;;;;;;4928553;28;20191;-92
2022/07/24 00:46:43;;;;;;;17.60;16.20;;;20.30;99.90;;;;;;4922930;28;20179;-92
2022/07/24 00:49:11;;;;;;;17.43;16.03;;;20.40;99.90;;;;;;4931057;28;20439;-92
2022/07/24 00:51:39;;;;;;;17.23;15.70;;;20.30;99.90;;;;;;4936858;28;20450;-93
2022/07/24 00:54:07;;;;;;;16.23;14.90;;;20.30;99.90;;;;;;4935329;28;20490;-92
2022/07/24 00:56:32;;;;;;;18.53;16.93;;;20.30;99.90;;;;;;4930185;28;20443;-92
2022/07/24 00:58:59;;;;;;;18.03;16.43;;;20.30;99.90;;;;;;4928431;28;20758;-92
2022/07/24 01:01:25;;;;;;;18.00;16.30;;;20.20;99.90;;;;;;4928566;28;20560;-92
2022/07/24 01:03:51;;;;;;;18.37;16.87;;;20.20;99.90;;;;;;4933467;28;20440;-92
2022/07/24 01:06:16;;;;;;;18.20;16.50;;;20.10;99.90;;;;;;4930959;28;21151;-92
2022/07/24 01:08:45;;;;;;;17.77;16.27;;;20.00;99.90;;;;;;4940237;28;20175;-92
2022/07/24 01:11:12;;;;;;;18.03;16.43;;;19.90;99.90;;;;;;4932324;28;20179;-91
2022/07/24 01:13:39;;;;;;;18.00;16.40;;;19.90;99.90;;;;;;4934196;28;20484;-90
2022/07/24 01:16:05;;;;;;;17.70;16.20;;;19.80;99.90;;;;;;4929896;28;20529;-91
2022/07/24 01:18:31;;;;;;;18.57;16.87;;;19.70;99.90;;;;;;4927933;28;20844;-91
2022/07/24 01:20:56;;;;;;;16.97;15.60;;;19.80;99.90;;;;;;4930242;28;20508;-92
2022/07/24 01:23:23;;;;;;;18.47;16.77;;;19.80;99.90;;;;;;4933399;28;20183;-91
2022/07/24 01:25:49;;;;;;;17.30;15.80;;;19.90;99.90;;;;;;4935008;28;20187;-92
2022/07/24 01:28:15;;;;;;;17.20;15.80;;;19.90;99.90;;;;;;4930698;28;20853;-91
2022/07/24 01:30:40;;;;;;;17.07;15.67;;;19.90;99.90;;;;;;4926855;28;20442;-93
2022/07/24 01:33:06;;;;;;;18.23;16.63;;;19.90;99.90;;;;;;4928060;28;20218;-91
2022/07/24 01:35:31;;;;;;;19.20;17.60;;;19.90;99.90;;;;;;4960882;28;20191;-92
2022/07/24 01:37:57;;;;;;;16.40;15.07;;;20.00;99.90;;;;;;4933002;28;20194;-92
2022/07/24 01:40:23;;;;;;;18.37;16.43;;;20.00;99.90;;;;;;4941179;28;20230;-92
2022/07/24 01:42:48;;;;;;;17.47;16.07;;;19.90;99.90;;;;;;4957119;28;20203;-92
2022/07/24 01:45:15;;;;;;;19.27;17.47;;;19.90;99.90;;;;;;4939132;28;20186;-92
2022/07/24 01:47:43;;;;;;;18.60;16.80;;;19.90;99.90;;;;;;4927559;28;20194;-91
2022/07/24 01:50:09;;;;;;;16.40;15.00;;;19.90;99.90;;;;;;4928233;28;20697;-91
2022/07/24 01:52:34;;;;;;;18.27;16.60;;;19.90;99.90;;;;;;4934253;28;20846;-91
2022/07/24 01:55:00;;;;;;;17.90;16.37;;;19.90;99.90;;;;;;4936818;28;20447;-92
2022/07/24 01:57:25;;;;;;;18.40;17.00;;;19.90;99.90;;;;;;4931557;28;20214;-91
2022/07/24 01:59:51;;;;;;;16.57;15.17;;;19.90;99.90;;;;;;4929865;28;20182;-91
2022/07/24 02:02:16;;;;;;;17.80;16.13;;;19.90;99.90;;;;;;4925068;28;20194;-91
2022/07/24 02:04:42;;;;;;;16.97;15.63;;;19.90;99.90;;;;;;4934940;28;20276;-91
2022/07/24 02:07:07;;;;;;;16.50;15.30;;;20.00;99.90;;;;;;4937662;28;20473;-91
2022/07/24 02:09:33;;;;;;;18.00;16.50;;;20.00;99.90;;;;;;4946746;28;20190;-91
2022/07/24 02:11:58;;;;;;;18.77;17.07;;;19.90;99.90;;;;;;4943518;28;20187;-91
2022/07/24 02:14:24;;;;;;;18.43;16.93;;;19.80;99.90;;;;;;4938693;28;20200;-90
2022/07/24 02:16:49;;;;;;;18.30;16.60;;;19.70;99.90;;;;;;4938632;28;20305;-91
2022/07/24 02:19:15;;;;;;;18.70;17.10;;;19.70;99.90;;;;;;4942747;28;20191;-90
2022/07/24 02:21:41;;;;;;;18.30;16.77;;;19.70;99.90;;;;;;4928804;28;20877;-90
2022/07/24 02:24:07;;;;;;;18.20;16.63;;;19.70;99.90;;;;;;4931699;28;20191;-90
2022/07/24 02:26:32;;;;;;;17.07;15.57;;;19.70;99.90;;;;;;4936681;28;20268;-90
2022/07/24 02:28:58;;;;;;;19.50;17.80;;;19.70;99.90;;;;;;4933153;28;20187;-90
2022/07/24 02:31:23;;;;;;;18.97;17.00;;;19.70;99.90;;;;;;4923458;28;20206;-91
2022/07/24 02:33:49;;;;;;;18.33;16.73;;;19.70;99.90;;;;;;4926001;28;20237;-92
2022/07/24 02:36:14;;;;;;;18.37;16.87;;;19.70;99.90;;;;;;4930084;28;20221;-91
2022/07/24 02:38:41;;;;;;;19.27;17.47;;;19.60;99.90;;;;;;4938703;28;20214;-91
2022/07/24 02:41:06;;;;;;;17.17;15.70;;;19.70;99.90;;;;;;4938139;28;20179;-90
2022/07/24 02:43:32;;;;;;;17.67;16.07;;;19.60;99.90;;;;;;4933730;28;20973;-90
2022/07/24 02:45:58;;;;;;;17.90;16.37;;;19.60;99.90;;;;;;4935955;28;20179;-90
2022/07/24 02:48:23;;;;;;;18.50;17.00;;;19.50;99.90;;;;;;4933480;28;20178;-90
2022/07/24 02:50:49;;;;;;;18.73;17.13;;;19.50;99.90;;;;;;4935528;28;20641;-91
2022/07/24 02:53:14;;;;;;;18.83;17.13;;;19.50;99.90;;;;;;4934263;28;20611;-91
2022/07/24 02:55:40;;;;;;;18.37;16.77;;;19.50;99.90;;;;;;4935036;28;20528;-91
2022/07/24 02:58:05;;;;;;;16.70;15.20;;;19.50;99.90;;;;;;4944140;28;20282;-92
2022/07/24 03:00:31;;;;;;;16.80;15.40;;;19.50;99.90;;;;;;4931569;28;20187;-92
2022/07/24 03:02:57;;;;;;;17.87;16.37;;;19.40;99.90;;;;;;4948711;28;20197;-91
2022/07/24 03:05:23;;;;;;;18.10;16.60;;;19.20;99.90;;;;;;4934031;28;20663;-92
2022/07/24 03:07:48;;;;;;;19.13;17.40;;;19.20;99.90;;;;;;4935983;28;20439;-92
2022/07/24 03:10:15;;;;;;;18.00;16.40;;;19.10;99.90;;;;;;4933484;28;20670;-91
2022/07/24 03:12:41;;;;;;;17.07;15.60;;;19.10;99.90;;;;;;4965044;28;20578;-91
2022/07/24 03:15:08;;;;;;;16.77;15.37;;;19.20;99.90;;;;;;4961328;28;20481;-91
2022/07/24 03:17:34;;;;;;;18.90;17.30;;;19.20;99.90;;;;;;4937562;28;20462;-91
2022/07/24 03:19:59;;;;;;;18.70;16.93;;;19.30;99.90;;;;;;4933785;28;20430;-91
2022/07/24 03:22:25;;;;;;;17.73;16.33;;;19.30;99.90;;;;;;4931148;28;20199;-91
2022/07/24 03:24:51;;;;;;;17.47;16.07;;;19.30;99.90;;;;;;4928092;28;20194;-91
2022/07/24 03:27:16;;;;;;;17.30;15.70;;;19.30;99.90;;;;;;4937876;28;20234;-92
2022/07/24 03:29:42;;;;;;;18.03;16.63;;;19.20;99.90;;;;;;4934860;28;20209;-91
2022/07/24 03:32:07;;;;;;;17.90;16.40;;;19.20;99.90;;;;;;4930984;28;20253;-91
2022/07/24 03:34:33;;;;;;;17.40;15.90;;;19.20;99.90;;;;;;4927930;28;20191;-91
2022/07/24 03:36:58;;;;;;;18.33;16.70;;;19.20;99.90;;;;;;4934947;28;20462;-91
2022/07/24 03:39:24;;;;;;;17.13;15.73;;;19.10;99.90;;;;;;4936345;28;20194;-91
2022/07/24 03:41:50;;;;;;;16.63;15.17;;;19.00;99.90;;;;;;4941066;28;20182;-91
2022/07/24 03:44:15;;;;;;;18.20;16.40;;;19.10;99.90;;;;;;4931421;28;20214;-91
2022/07/24 03:46:41;;;;;;;17.80;16.37;;;19.00;99.90;;;;;;4929545;28;20183;-91
2022/07/24 03:49:06;;;;;;;18.60;16.83;;;19.00;99.90;;;;;;4936669;28;20223;-92
2022/07/24 03:51:32;;;;;;;19.33;17.83;;;19.00;99.90;;;;;;4949909;28;20187;-92
2022/07/24 03:53:57;;;;;;;19.77;18.27;;;19.00;99.90;;;;;;4930468;28;20218;-91
2022/07/24 03:56:23;;;;;;;21.10;19.40;;;19.00;99.90;;;;;;4932223;28;20233;-91
2022/07/24 03:58:48;;;;;;;18.60;17.00;;;19.00;99.90;;;;;;4937847;28;20187;-91
2022/07/24 04:01:14;;;;;;;19.47;17.97;;;18.90;99.90;;;;;;4937162;28;20187;-92
2022/07/24 04:03:39;;;;;;;19.57;17.97;;;18.90;99.90;;;;;;4926371;28;20188;-90
2022/07/24 04:06:06;;;;;;;18.13;16.63;;;19.00;99.90;;;;;;4931222;28;20186;-91
2022/07/24 04:08:33;;;;;;;18.70;17.10;;;18.90;99.90;;;;;;4931249;28;20183;-89
2022/07/24 04:10:59;;;;;;;16.90;15.50;;;18.90;99.90;;;;;;4933297;28;20952;-91
2022/07/24 04:13:26;;;;;;;17.97;16.43;;;18.90;99.90;;;;;;4933510;28;20584;-91
2022/07/24 04:15:52;;;;;;;17.20;15.67;;;18.90;99.90;;;;;;4936544;28;20180;-91
2022/07/24 04:18:18;;;;;;;15.53;14.23;;;19.10;99.90;;;;;;4935299;28;20485;-91
2022/07/24 04:20:43;;;;;;;18.90;17.30;;;19.00;99.90;;;;;;4931675;28;20597;-91
2022/07/24 04:23:09;;;;;;;17.43;15.90;;;19.00;99.90;;;;;;4928725;28;20237;-92
2022/07/24 04:25:34;;;;;;;17.70;16.10;;;19.10;99.90;;;;;;4926984;28;20589;-91
2022/07/24 04:28:01;;;;;;;17.77;16.30;;;19.10;99.90;;;;;;4932412;28;20194;-91
2022/07/24 04:30:27;;;;;;;17.30;15.77;;;19.10;99.90;;;;;;4929873;28;20197;-91
2022/07/24 04:32:52;;;;;;;17.57;16.10;;;19.10;99.90;;;;;;4931251;28;20482;-91
2022/07/24 04:35:18;;;;;;;16.87;15.47;;;19.00;99.90;;;;;;4933819;28;20197;-90
2022/07/24 04:37:45;;;;;;;16.60;15.30;;;19.00;99.90;;;;;;4930858;28;20191;-91
2022/07/24 04:40:11;;;;;;;16.73;15.27;;;18.90;99.90;;;;;;4933944;28;20310;-91
2022/07/24 04:42:37;;;;;;;17.93;16.20;;;19.00;99.90;;;;;;4970050;28;20461;-91
2022/07/24 04:45:04;;;;;;;16.37;14.97;;;18.90;99.90;;;;;;4941519;28;20446;-91
2022/07/24 04:47:30;;;;;;;17.10;15.70;;;18.90;99.90;;;;;;4926659;28;20546;-91
2022/07/24 04:49:55;;;;;;;17.27;15.77;;;18.90;99.90;;;;;;4932165;28;21146;-90
2022/07/24 04:52:21;;;;;;;17.60;15.97;;;18.80;99.90;;;;;;4928344;28;20237;-91
2022/07/24 04:54:46;;;;;;;17.90;16.23;;;18.90;99.90;;;;;;4929775;28;20254;-90
2022/07/24 04:57:12;;;;;;;18.53;16.83;;;18.90;99.90;;;;;;4929137;28;20235;-91
2022/07/24 04:59:38;;;;;;;18.17;16.67;;;18.90;99.90;;;;;;4943275;28;20191;-90
2022/07/24 05:02:03;;;;;;;18.67;16.97;;;18.80;99.90;;;;;;4937047;28;20569;-91
2022/07/24 05:04:29;;;;;;;19.10;17.40;;;18.80;99.90;;;;;;4928439;28;20196;-91
2022/07/24 05:06:54;;;;;;;18.47;16.93;;;18.80;99.90;;;;;;4929845;28;20725;-91
2022/07/24 05:09:20;;;;;;;20.07;18.37;;;18.80;99.90;;;;;;4931105;28;20281;-91
2022/07/24 05:11:46;;;;;;;18.57;16.87;;;18.80;99.90;;;;;;4930812;28;20233;-91
2022/07/24 05:14:11;;;;;;;18.20;16.53;;;18.80;99.90;;;;;;4935782;28;20218;-91
2022/07/24 05:16:37;;;;;;;19.20;17.50;;;18.90;99.90;;;;;;4941575;28;20198;-91
2022/07/24 05:19:02;;;;;;;18.43;16.83;;;18.90;99.90;;;;;;4928664;28;20221;-91
2022/07/24 05:21:28;;;;;;;18.03;16.33;;;19.00;99.90;;;;;;4931330;28;20502;-91
2022/07/24 05:23:54;;;;;;;19.13;17.53;;;19.10;99.90;;;;;;4925830;28;20200;-91
2022/07/24 05:26:19;;;;;;;18.13;16.67;;;19.00;99.90;;;;;;4932169;28;20199;-91
2022/07/24 05:28:45;;;;;;;18.47;16.97;;;19.00;99.90;;;;;;4959879;28;20171;-90
2022/07/24 05:31:10;;;;;;;18.53;16.97;;;19.10;99.90;;;;;;4937454;28;20187;-91
2022/07/24 05:33:36;;;;;;;18.30;16.70;;;19.20;99.90;;;;;;4930410;28;20286;-91
2022/07/24 05:36:02;;;;;;;17.10;15.60;;;19.40;99.90;;;;;;4946950;28;20800;-91
2022/07/24 05:38:28;;;;;;;17.53;16.13;;;19.40;99.90;;;;;;4927648;28;20539;-91
2022/07/24 05:40:55;;;;;;;16.83;15.23;;;19.40;99.90;;;;;;4929919;28;20438;-91
2022/07/24 05:43:20;;;;;;;18.00;16.40;;;19.40;99.90;;;;;;4930522;28;20190;-91
2022/07/24 05:45:46;;;;;;;18.53;16.97;;;19.50;99.90;;;;;;4939770;28;20431;-91
2022/07/24 05:48:12;;;;;;;18.10;16.50;;;19.50;99.90;;;;;;4937966;28;20195;-92
2022/07/24 05:50:37;;;;;;;17.83;16.33;;;19.50;99.90;;;;;;4931781;28;20278;-91
2022/07/24 05:53:03;;;;;;;17.83;16.37;;;19.50;99.90;;;;;;4925766;28;21226;-91
2022/07/24 05:55:28;;;;;;;19.67;17.90;;;19.50;99.90;;;;;;4933116;28;20198;-91
2022/07/24 05:57:55;;;;;;;18.37;16.77;;;19.40;99.90;;;;;;4927100;28;20217;-91
2022/07/24 06:00:21;;;;;;;18.00;16.40;;;19.50;99.90;;;;;;4935000;28;20565;-91
2022/07/24 06:02:47;;;;;;;17.60;16.10;;;19.50;99.90;;;;;;4931834;28;20456;-91
2022/07/24 06:05:16;;;;;;;17.33;15.83;;;19.70;99.90;;;;;;4929497;28;20183;-92
2022/07/24 06:07:43;;;;;;;16.63;15.33;;;19.70;99.90;;;;;;4929178;28;21080;-90
2022/07/24 06:10:09;;;;;;;17.40;15.97;;;19.80;99.90;;;;;;4926492;28;21193;-92
2022/07/24 06:12:34;;;;;;;17.37;15.87;;;19.80;99.90;;;;;;4925263;28;20478;-91
2022/07/24 06:15:00;;;;;;;17.33;15.83;;;19.90;99.90;;;;;;4926207;28;20752;-92
2022/07/24 06:17:26;;;;;;;17.30;15.80;;;20.10;99.90;;;;;;4933269;28;20191;-91
2022/07/24 06:19:51;;;;;;;17.13;15.63;;;20.10;99.90;;;;;;4964461;28;21645;-92
2022/07/24 06:22:17;;;;;;;16.43;15.13;;;20.20;99.90;;;;;;4940328;28;20653;-91
2022/07/24 06:24:42;;;;;;;17.50;15.80;;;20.30;99.90;;;;;;4928482;28;20215;-90
2022/07/24 06:27:08;;;;;;;15.83;14.60;;;20.30;99.90;;;;;;4947025;28;20186;-90
2022/07/24 06:29:33;;;;;;;15.90;14.60;;;20.30;99.90;;;;;;4928815;28;20187;-90
2022/07/24 06:31:59;;;;;;;17.20;15.80;;;20.40;99.90;;;;;;4938416;28;20591;-90
2022/07/24 06:34:24;;;;;;;16.97;15.30;;;20.50;99.90;;;;;;4934392;28;20736;-90
2022/07/24 06:36:51;;;;;;;16.33;14.93;;;20.60;99.90;;;;;;4921616;28;20194;-90
2022/07/24 06:39:17;;;;;;;15.43;14.13;;;20.80;99.90;;;;;;4930393;28;20190;-91
2022/07/24 06:41:42;;;;;;;15.97;14.53;;;20.90;99.90;;;;;;4925989;28;20442;-91
2022/07/24 06:44:08;;;;;;;15.83;14.43;;;21.10;99.90;;;;;;4928658;28;20967;-91
2022/07/24 06:46:34;;;;;;;16.33;14.87;;;21.20;99.90;;;;;;4928098;28;20222;-91
2022/07/24 06:48:59;;;;;;;15.17;13.97;;;21.20;99.90;;;;;;4941987;28;20175;-90
2022/07/24 06:51:25;;;;;;;15.20;14.00;;;21.30;99.90;;;;;;4927603;28;20195;-90
2022/07/24 06:53:51;;;;;;;14.83;13.67;;;21.40;99.90;;;;;;4929703;28;20319;-91
2022/07/24 06:56:17;;;;;;;16.07;14.67;;;21.40;99.90;;;;;;4927721;28;20194;-90
2022/07/24 06:58:42;;;;;;;15.70;14.50;;;21.40;99.90;;;;;;4929872;28;20202;-90
2022/07/24 07:01:08;;;;;;;15.63;14.30;;;21.40;99.90;;;;;;4941535;28;20191;-90
2022/07/24 07:03:34;;;;;;;15.20;13.90;;;21.50;99.90;;;;;;4935641;28;20191;-91
2022/07/24 07:05:59;;;;;;;14.80;13.60;;;21.50;99.90;;;;;;4926608;28;20419;-90
2022/07/24 07:08:25;;;;;;;14.43;13.23;;;21.60;99.90;;;;;;4933988;28;20194;-91
2022/07/24 07:10:50;;;;;;;14.77;13.57;;;21.60;99.90;;;;;;4926822;28;20194;-91
2022/07/24 07:13:16;;;;;;;14.47;13.37;;;21.90;99.90;;;;;;4920628;28;20219;-91
2022/07/24 07:15:41;;;;;;;13.80;12.80;;;22.00;99.90;;;;;;4928110;28;20230;-90
2022/07/24 07:18:07;;;;;;;16.13;14.73;;;22.20;99.90;;;;;;4930972;28;20545;-90
2022/07/24 07:20:32;;;;;;;13.83;12.73;;;22.30;99.90;;;;;;4923731;28;22272;-91
2022/07/24 07:22:58;;;;;;;14.30;13.20;;;22.40;99.90;;;;;;4930879;28;22182;-90
2022/07/24 07:25:23;;;;;;;14.07;12.67;;;22.40;99.90;;;;;;4927448;28;20192;-91
2022/07/24 07:27:49;;;;;;;14.53;13.27;;;22.50;99.90;;;;;;4925586;28;20187;-91
2022/07/24 07:30:15;;;;;;;13.83;12.73;;;22.60;99.90;;;;;;4935852;28;20194;-91
2022/07/24 07:32:40;;;;;;;14.70;13.50;;;22.60;99.90;;;;;;4938750;28;20199;-92
2022/07/24 07:35:07;;;;;;;13.70;12.50;;;22.70;99.90;;;;;;4934730;28;20184;-91
2022/07/24 07:37:32;;;;;;;13.97;12.87;;;22.90;99.90;;;;;;4935177;28;20194;-91
2022/07/24 07:39:58;;;;;;;12.90;11.83;;;22.90;99.90;;;;;;4939137;28;20804;-91
2022/07/24 07:42:24;;;;;;;14.03;13.03;;;22.90;99.90;;;;;;4933524;28;20662;-91
2022/07/24 07:44:49;;;;;;;13.00;12.00;;;23.00;99.90;;;;;;4933181;28;20851;-91
2022/07/24 07:47:15;;;;;;;13.30;12.27;;;23.00;99.90;;;;;;4939897;28;20396;-92
2022/07/24 07:49:41;;;;;;;12.17;11.27;;;23.30;99.90;;;;;;4945141;28;20236;-91
2022/07/24 07:52:06;;;;;;;12.67;11.70;;;23.40;99.90;;;;;;4941391;28;20194;-90
2022/07/24 07:54:32;;;;;;;13.20;12.07;;;23.70;99.90;;;;;;4943320;28;20234;-91
2022/07/24 07:56:57;;;;;;;12.80;11.80;;;24.00;99.90;;;;;;4968526;28;20198;-92
2022/07/24 07:59:23;;;;;;;11.63;10.83;;;24.00;99.90;;;;;;4933674;28;20190;-91
2022/07/24 08:01:49;;;;;;;12.37;11.47;;;24.20;99.90;;;;;;4937963;28;20526;-90
2022/07/24 08:04:14;;;;;;;12.90;11.87;;;24.20;99.90;;;;;;4934695;28;20584;-91
2022/07/24 08:06:40;;;;;;;10.67;9.87;;;24.30;99.90;;;;;;4943750;28;20195;-91
2022/07/24 08:09:05;;;;;;;10.70;9.90;;;24.50;99.90;;;;;;4932387;28;24996;-92
2022/07/24 08:11:31;;;;;;;10.40;9.60;;;24.60;99.20;;;;;;4933090;28;20186;-90
2022/07/24 08:13:56;;;;;;;12.10;11.20;;;24.70;98.80;;;;;;4953076;28;20256;-91
2022/07/24 08:16:22;;;;;;;10.43;9.73;;;24.80;99.90;;;;;;4929892;28;20218;-91
2022/07/24 08:18:47;;;;;;;10.10;9.30;;;24.90;98.30;;;;;;4930485;28;20245;-90
2022/07/24 08:21:15;;;;;;;10.90;10.13;;;24.90;97.40;;;;;;4941873;28;20179;-91
2022/07/24 08:23:41;;;;;;;12.43;11.30;;;25.00;99.90;;;;;;4936385;28;20604;-91
2022/07/24 08:26:06;;;;;;;11.73;10.93;;;24.90;99.60;;;;;;4936293;28;20818;-91
2022/07/24 08:28:32;;;;;;;11.33;10.30;;;24.60;99.90;;;;;;4931390;28;20442;-91
2022/07/24 08:30:58;;;;;;;11.30;10.40;;;24.50;99.80;;;;;;4931891;28;20234;-91
2022/07/24 08:33:23;;;;;;;10.83;10.03;;;24.40;99.90;;;;;;4933970;28;20578;-90
2022/07/24 08:35:49;;;;;;;10.47;9.70;;;24.50;99.80;;;;;;4936096;28;20179;-91
2022/07/24 08:38:14;;;;;;;10.23;9.43;;;24.90;99.90;;;;;;4940578;28;20195;-91
2022/07/24 08:40:40;;;;;;;10.80;10.10;;;25.20;99.90;;;;;;4925854;28;20194;-91
2022/07/24 08:43:08;;;;;;;11.20;10.30;;;25.50;99.90;;;;;;4928899;28;20207;-91
2022/07/24 08:45:35;;;;;;;11.70;10.60;;;25.70;99.50;;;;;;4941425;28;20599;-90
2022/07/24 08:48:03;;;;;;;9.97;9.17;;;26.00;99.00;;;;;;4931872;28;20596;-91
2022/07/24 08:50:30;;;;;;;8.70;8.10;;;26.10;94.80;;;;;;4934142;28;20443;-91
2022/07/24 08:52:57;;;;;;;11.07;10.27;;;26.30;94.40;;;;;;4936332;28;20557;-92
2022/07/24 08:55:23;;;;;;;9.83;9.13;;;26.40;94.00;;;;;;4931910;28;22460;-91
2022/07/24 08:57:49;;;;;;;9.87;9.20;;;26.20;94.00;;;;;;4924507;28;20455;-91
2022/07/24 09:00:14;;;;;;;10.67;9.70;;;26.10;94.70;;;;;;4932302;28;20548;-92
2022/07/24 09:02:40;;;;;;;10.40;9.47;;;26.30;94.60;;;;;;4943400;28;20180;-91
2022/07/24 09:05:07;;;;;;;10.87;10.07;;;26.00;94.30;;;;;;4926439;28;20191;-94
2022/07/24 09:07:33;;;;;;;9.77;9.17;;;25.90;95.80;;;;;;4933627;28;20186;-92
2022/07/24 09:10:06;;;;;;;9.60;8.80;;;26.20;94.70;;;;;;4930372;28;20470;-92
2022/07/24 09:12:41;;;;;;;10.10;9.20;;;26.30;93.90;;;;;;4936826;28;20470;-93
2022/07/24 09:15:15;;;;;;;10.00;9.07;;;26.40;93.10;;;;;;4927349;28;20537;-93
2022/07/24 09:17:53;;;;;;;9.93;9.23;;;26.50;93.00;;;;;;4930381;28;20437;-94
2022/07/24 09:20:20;;;;;;;10.13;9.40;;;26.60;92.30;;;;;;4938648;28;20470;-93
2022/07/24 09:22:46;;;;;;;9.53;8.60;;;26.50;93.30;;;;;;4955601;28;20485;-94
2022/07/24 09:25:18;;;;;;;9.57;8.97;;;26.70;92.60;;;;;;4933015;28;20526;-93
2022/07/24 09:27:58;;;;;;;10.00;9.20;;;26.90;92.20;;;;;;4930591;28;20241;-93
2022/07/24 09:30:36;;;;;;;9.20;8.60;;;26.70;91.80;;;;;;4929699;28;20971;-93
2022/07/24 09:33:12;;;;;;;11.10;10.27;;;26.40;93.00;;;;;;4934530;28;20517;-93
2022/07/24 09:35:43;;;;;;;10.67;9.77;;;26.40;93.70;;;;;;4930214;28;20446;-94
2022/07/24 09:38:20;;;;;;;11.60;10.70;;;26.60;94.80;;;;;;4934820;28;20582;-93
2022/07/24 09:40:51;;;;;;;11.67;10.87;;;26.70;92.50;;;;;;4932845;28;20443;-93
2022/07/24 09:43:23;;;;;;;11.87;10.97;;;26.50;92.50;;;;;;4948270;28;20459;-93
2022/07/24 09:46:04;;;;;;;10.67;9.83;;;26.30;93.10;;;;;;4935380;28;20449;-93
2022/07/24 09:48:35;;;;;;;10.13;9.23;;;26.40;94.10;;;;;;4927385;28;20450;-93
2022/07/24 09:51:04;;;;;;;10.67;9.87;;;26.70;92.20;;;;;;4964732;28;20972;-93
2022/07/24 09:53:34;;;;;;;10.40;9.70;;;26.80;91.90;;;;;;4964351;28;20474;-92
2022/07/24 09:56:06;;;;;;;11.03;10.13;;;27.00;91.30;;;;;;4937252;28;21267;-93
2022/07/24 09:58:34;;;;;;;11.67;10.77;;;26.80;91.30;;;;;;4923958;28;20457;-94
2022/07/24 10:01:00;;;;;;;11.37;10.37;;;26.80;91.40;;;;;;4926491;28;20430;-95
2022/07/24 10:03:30;;;;;;;12.20;11.20;;;27.10;90.90;;;;;;4931258;28;20500;-94
2022/07/24 10:05:58;;;;;;;10.60;9.90;;;27.30;90.40;;;;;;4936289;28;20497;-95
2022/07/24 10:08:24;;;;;;;11.30;10.50;;;27.10;91.10;;;;;;4942805;28;20960;-93
2022/07/24 10:10:50;;;;;;;10.83;10.03;;;26.90;90.80;;;;;;4934714;28;20545;-94
2022/07/24 10:13:17;;;;;;;11.83;10.83;;;27.30;91.30;;;;;;4926451;28;20486;-94
2022/07/24 10:15:53;;;;;;;11.33;10.53;;;27.50;90.70;;;;;;4933542;28;20266;-94
2022/07/24 10:18:19;;;;;;;12.17;11.23;;;27.70;91.20;;;;;;4926735;28;20447;-95
2022/07/24 10:20:46;;;;;;;12.07;10.97;;;27.90;89.60;;;;;;4929293;28;20438;-94
2022/07/24 10:23:22;;;;;;;12.77;11.77;;;28.10;87.80;;;;;;4935878;28;20481;-95
2022/07/24 10:25:54;;;;;;;11.93;10.90;;;28.50;90.50;;;;;;4931322;28;20468;-93
2022/07/24 10:28:50;;;;;;;11.03;10.13;;;28.30;86.60;;;;;;4931829;28;20458;-92
2022/07/24 10:31:15;;;;;;;10.97;10.07;;;28.20;84.90;;;;;;4933401;28;20546;-95
2022/07/24 10:33:45;;;;;;;10.67;9.97;;;27.90;85.90;;;;;;4938430;28;20570;-93
2022/07/24 10:36:22;;;;;;;11.20;10.30;;;27.90;85.60;;;;;;4925478;28;20305;-93
2022/07/24 10:38:56;;;;;;;11.10;10.10;;;28.20;84.40;;;;;;4936730;28;20605;-95
2022/07/24 10:41:25;;;;;;;10.67;9.87;;;28.40;82.30;;;;;;4937473;28;20439;-94
2022/07/24 10:44:14;;;;;;;10.67;9.90;;;28.80;85.70;;;;;;4937932;28;20514;-93
2022/07/24 10:46:59;;;;;;;10.70;9.90;;;29.20;87.50;;;;;;4940984;28;20444;-94
2022/07/24 10:49:48;;;;;;;12.07;11.13;;;29.40;84.40;;;;;;4971388;28;20450;-93
2022/07/24 10:52:36;;;;;;;10.40;9.70;;;29.70;80.50;;;;;;4942359;28;21715;-94
2022/07/24 10:55:26;;;;;;;11.13;10.33;;;29.40;78.10;;;;;;4939553;28;20459;-94
2022/07/24 10:57:56;;;;;;;11.73;10.70;;;29.40;84.00;;;;;;4937669;28;20438;-96
2022/07/24 11:00:34;;;;;;;11.13;10.13;;;29.80;80.30;;;;;;4941997;28;20537;-96
2022/07/24 11:03:16;;;;;;;10.80;10.00;;;29.90;77.00;;;;;;4940599;28;20877;-94
2022/07/24 11:05:42;;;;;;;11.00;10.20;;;30.00;80.90;;;;;;4938088;28;20451;-95
2022/07/24 11:08:17;;;;;;;11.60;10.70;;;30.00;75.00;;;;;;4940381;28;20754;-94
2022/07/24 11:10:46;;;;;;;11.27;10.57;;;30.00;78.60;;;;;;4941366;28;20178;-95
2022/07/24 11:13:31;;;;;;;11.33;10.43;;;30.10;76.70;;;;;;4945199;28;20474;-94
2022/07/24 11:16:15;;;;;;;10.67;9.93;;;30.30;76.30;;;;;;4976989;28;20540;-95
2022/07/24 11:18:49;;;;;;;10.07;9.37;;;30.20;74.50;;;;;;4943112;28;20533;-94
2022/07/24 11:21:35;;;;;;;10.37;9.67;;;30.20;76.00;;;;;;4945354;28;20517;-94
2022/07/24 11:24:20;;;;;;;10.27;9.53;;;30.20;73.40;;;;;;4950488;28;20483;-95
2022/07/24 11:26:49;;;;;;;10.70;10.00;;;30.50;73.80;;;;;;4975999;28;20780;-95
2022/07/24 11:29:24;;;;;;;10.90;10.10;;;30.50;72.90;;;;;;4943419;28;20450;-95
2022/07/24 11:31:53;;;;;;;10.40;9.70;;;30.10;72.60;;;;;;4973058;28;20445;-95
2022/07/24 11:34:18;;;;;;;11.43;10.53;;;30.00;73.80;;;;;;4942737;28;20491;-95
2022/07/24 11:36:51;;;;;;;10.13;9.50;;;30.30;74.70;;;;;;4942375;28;20531;-95
2022/07/24 11:39:18;;;;;;;11.30;10.40;;;30.50;71.10;;;;;;4955739;28;20190;-95
2022/07/24 11:41:55;;;;;;;10.10;9.40;;;30.70;70.20;;;;;;4934119;28;20434;-96
2022/07/24 11:44:29;;;;;;;9.93;9.30;;;31.00;70.70;;;;;;4934658;28;20451;-95
2022/07/24 11:47:00;;;;;;;9.73;8.90;;;31.30;71.00;;;;;;4931208;28;20453;-93
2022/07/24 11:49:26;;;;;;;10.30;9.40;;;31.10;69.60;;;;;;4947867;28;20816;-95
2022/07/24 11:51:54;;;;;;;10.20;9.50;;;31.20;73.80;;;;;;4930736;28;20446;-94
2022/07/24 11:54:22;;;;;;;10.90;10.03;;;31.40;68.80;;;;;;4931858;28;20732;-94
2022/07/24 11:56:48;;;;;;;10.20;9.50;;;31.30;69.30;;;;;;4944323;28;20438;-95
2022/07/24 11:59:26;;;;;;;10.80;10.10;;;31.70;72.20;;;;;;4935408;28;20465;-95
2022/07/24 12:01:56;;;;;;;9.47;8.80;;;32.10;67.40;;;;;;4949523;28;20191;-94
2022/07/24 12:04:22;;;;;;;10.60;9.90;;;32.00;68.40;;;;;;4949545;28;22371;-95
2022/07/24 12:06:48;;;;;;;10.80;10.00;;;32.30;73.70;;;;;;4931636;28;20446;-96
2022/07/24 12:09:14;;;;;;;10.27;9.57;;;32.30;74.50;;;;;;4933170;28;20451;-91
2022/07/24 12:11:40;;;;;;;10.60;9.90;;;32.10;67.80;;;;;;4942956;28;20442;-94
2022/07/24 12:14:16;;;;;;;10.23;9.30;;;31.80;67.40;;;;;;4942236;28;20568;-95
2022/07/24 12:16:43;;;;;;;9.77;9.07;;;32.20;65.00;;;;;;4937527;28;20190;-96
2022/07/24 12:19:18;;;;;;;10.37;9.57;;;31.90;67.10;;;;;;4967316;28;20458;-93
2022/07/24 12:21:45;;;;;;;10.00;9.30;;;31.40;65.40;;;;;;4929943;28;20446;-93
2022/07/24 12:24:11;;;;;;;10.70;10.00;;;31.30;65.40;;;;;;4928270;28;20473;-95
2022/07/24 12:26:55;;;;;;;10.33;9.60;;;31.10;66.40;;;;;;4934234;28;20469;-94
2022/07/24 12:29:21;;;;;;;10.80;10.03;;;31.40;67.10;;;;;;4930781;28;21001;-93